createdAt,value
2023-01-23T00:01:17.460Z,27.1
2023-01-23T00:06:19.360Z,27
2023-01-23T00:11:21.395Z,27.1
2023-01-23T00:16:23.225Z,27.1
2023-01-23T00:21:25.081Z,27.1
2023-01-23T00:26:26.879Z,27.1
2023-01-23T00:31:28.837Z,27.1
2023-01-23T00:36:30.547Z,27.1
2023-01-23T00:41:32.294Z,27.1
2023-01-23T00:46:33.952Z,27.1
2023-01-23T00:51:35.580Z,27.1
2023-01-23T00:56:37.556Z,27.1
2023-01-23T01:01:39.469Z,27.1
2023-01-23T01:06:41.338Z,27.1
2023-01-23T01:11:43.312Z,27.1
2023-01-23T01:16:45.186Z,27.1
2023-01-23T01:21:47.148Z,27.1
2023-01-23T01:26:48.897Z,27.1
2023-01-23T01:31:50.568Z,27.1
2023-01-23T01:36:52.472Z,27.1
2023-01-23T01:41:54.227Z,27.1
2023-01-23T01:46:56.218Z,27.1
2023-01-23T01:51:58.137Z,27.1
2023-01-23T01:57:00.112Z,27.1
2023-01-23T02:02:01.966Z,27.1
2023-01-23T02:07:03.747Z,27.1
2023-01-23T02:12:05.736Z,27.1
2023-01-23T02:17:07.607Z,27.1
2023-01-23T02:22:09.493Z,27.1
2023-01-23T02:27:11.559Z,27.1
2023-01-23T02:32:13.433Z,27.1
2023-01-23T02:37:15.360Z,27.1
2023-01-23T02:42:17.334Z,27.1
2023-01-23T02:47:19.003Z,27.1
2023-01-23T02:52:20.682Z,27.1
2023-01-23T02:57:22.461Z,27.1
2023-01-23T03:02:24.126Z,27.1
2023-01-23T03:07:26.018Z,27.1
2023-01-23T03:12:28.007Z,27.1
2023-01-23T03:17:29.619Z,27.1
2023-01-23T03:22:31.497Z,27.1
2023-01-23T03:27:33.244Z,27.1
2023-01-23T03:32:35.093Z,27.1
2023-01-23T03:37:36.768Z,27.1
2023-01-23T03:42:38.504Z,27.2
2023-01-23T03:47:40.124Z,27.1
2023-01-23T03:52:41.999Z,27.1
2023-01-23T03:57:43.743Z,27.1
2023-01-23T04:02:45.464Z,27.1
2023-01-23T04:07:47.320Z,27.1
2023-01-23T04:12:49.068Z,27.1
2023-01-23T04:17:50.685Z,27.1
2023-01-23T04:22:52.553Z,27.1
2023-01-23T04:27:54.368Z,27.1
2023-01-23T04:32:55.999Z,27.1
2023-01-23T04:37:57.622Z,27.1
2023-01-23T04:42:59.617Z,27.1
2023-01-23T04:48:01.468Z,27.1
2023-01-23T04:53:03.303Z,27.1
2023-01-23T04:58:05.279Z,27.1
2023-01-23T05:03:07.136Z,27.1
2023-01-23T05:08:08.980Z,27.1
2023-01-23T05:13:10.991Z,27.1
2023-01-23T05:18:12.884Z,27.1
2023-01-23T05:23:14.509Z,27.1
2023-01-23T05:28:16.384Z,27.1
2023-01-23T05:33:17.991Z,27.1
2023-01-23T05:38:19.602Z,27.1
2023-01-23T05:43:21.594Z,27.1
2023-01-23T05:48:23.433Z,27.1
2023-01-23T05:53:25.084Z,27.1
2023-01-23T05:58:27.041Z,27.1
2023-01-23T06:03:28.652Z,27.1
2023-01-23T06:08:30.308Z,27.1
2023-01-23T06:13:32.032Z,27.1
2023-01-23T06:18:33.909Z,27.1
2023-01-23T06:23:35.549Z,27.1
2023-01-23T06:28:37.501Z,27.1
2023-01-23T06:33:39.178Z,27.1
2023-01-23T06:38:41.085Z,27.1
2023-01-23T06:43:43.072Z,27.1
2023-01-23T06:48:44.972Z,27.1
2023-01-23T06:53:46.865Z,27.1
2023-01-23T06:58:48.877Z,27.1
2023-01-23T07:03:50.532Z,27.1
2023-01-23T07:08:52.369Z,27.1
2023-01-23T07:13:54.301Z,27
2023-01-23T07:18:55.968Z,27
2023-01-23T07:23:57.874Z,27
2023-01-23T07:28:59.716Z,26.9
2023-01-23T07:34:01.822Z,27
2023-01-23T07:39:03.498Z,26.9
2023-01-23T07:44:05.270Z,26.9
2023-01-23T07:49:07.232Z,26.9
2023-01-23T07:54:09.133Z,27
2023-01-23T07:59:10.937Z,26.9
2023-01-23T08:04:12.911Z,26.9
2023-01-23T08:09:14.630Z,26.9
2023-01-23T08:14:16.650Z,26.9
2023-01-23T08:19:18.317Z,26.9
2023-01-23T08:24:19.979Z,26.9
2023-01-23T08:29:22.016Z,26.9
2023-01-23T08:34:23.737Z,26.9
2023-01-23T08:39:25.408Z,26.9
2023-01-23T08:44:27.288Z,26.9
2023-01-23T08:49:29.291Z,26.9
2023-01-23T08:54:31.253Z,26.9
2023-01-23T08:59:33.308Z,26.9
2023-01-23T09:04:35.275Z,26.9
2023-01-23T09:09:37.213Z,26.9
2023-01-23T09:14:39.263Z,26.9
2023-01-23T09:19:40.963Z,26.9
2023-01-23T09:24:42.882Z,26.9
2023-01-23T09:29:44.865Z,26.9
2023-01-23T09:34:46.536Z,26.9
2023-01-23T09:39:48.192Z,26.9
2023-01-23T09:44:49.992Z,26.9
2023-01-23T09:49:51.871Z,26.9
2023-01-23T09:54:53.782Z,26.9
2023-01-23T10:00:00.575Z,26.9
2023-01-23T10:05:02.689Z,26.9
2023-01-23T10:10:06.867Z,26.9
2023-01-23T10:15:08.723Z,26.9
2023-01-23T10:20:10.411Z,26.9
2023-01-23T10:25:12.110Z,26.9
2023-01-23T10:30:13.779Z,26.9
2023-01-23T10:35:15.420Z,26.9
2023-01-23T10:40:17.074Z,26.9
2023-01-23T10:45:19.207Z,26.9
2023-01-23T10:50:21.084Z,26.9
2023-01-23T10:55:23.088Z,26.9
2023-01-23T11:00:25.018Z,26.9
2023-01-23T11:05:26.983Z,26.9
2023-01-23T11:10:28.870Z,26.8
2023-01-23T11:15:31.048Z,26.8
2023-01-23T11:20:32.725Z,26.8
2023-01-23T11:25:34.730Z,26.8
2023-01-23T11:30:36.909Z,26.8
2023-01-23T11:35:38.660Z,26.8
2023-01-23T11:40:40.362Z,26.8
2023-01-23T11:45:42.131Z,26.8
2023-01-23T11:50:54.300Z,26.8
2023-01-23T11:55:56.544Z,26.8
2023-01-23T12:00:58.350Z,26.8
2023-01-23T12:06:14.051Z,26.8
2023-01-23T12:23:01.176Z,26.8
2023-01-23T12:28:02.802Z,26.8
2023-01-23T12:33:04.420Z,26.8
2023-01-23T12:38:06.100Z,26.8
2023-01-23T12:43:07.725Z,26.8
2023-01-23T12:48:09.385Z,26.8
2023-01-23T12:53:11.171Z,26.8
2023-01-23T12:58:13.036Z,26.8
2023-01-23T13:03:15.319Z,26.8
2023-01-23T13:08:19.042Z,26.8
2023-01-23T13:13:20.998Z,26.8
2023-01-23T13:18:22.657Z,26.8
2023-01-23T13:23:24.483Z,26.8
2023-01-23T13:28:29.642Z,26.8
2023-01-23T13:33:37.056Z,26.7
2023-01-23T13:38:38.840Z,26.7
2023-01-23T13:43:40.475Z,26.7
2023-01-23T13:48:42.132Z,26.7
2023-01-23T13:53:44.292Z,26.7
2023-01-23T13:58:45.957Z,26.7
2023-01-23T14:03:47.876Z,26.7
2023-01-23T14:08:50.651Z,26.7
2023-01-23T14:13:52.460Z,26.7
2023-01-23T14:18:54.103Z,26.7
2023-01-23T14:23:56.161Z,26.6
2023-01-23T14:28:58.101Z,26.6
2023-01-23T14:34:08.716Z,26.6
2023-01-23T14:39:11.293Z,26.6
2023-01-23T14:44:13.023Z,26.6
2023-01-23T14:49:14.699Z,26.6
2023-01-23T14:54:20.334Z,26.6
2023-01-23T14:59:24.098Z,26.6
2023-01-23T15:04:26.020Z,26.6
2023-01-23T15:09:29.222Z,26.6
2023-01-23T15:14:31.008Z,26.6
2023-01-23T15:19:32.934Z,26.6
2023-01-23T15:24:34.974Z,26.6
2023-01-23T15:29:36.676Z,26.6
2023-01-23T15:34:38.589Z,26.5
2023-01-23T15:39:40.553Z,26.5
2023-01-23T15:44:42.286Z,26.5
2023-01-23T15:49:44.147Z,26.5
2023-01-23T15:54:46.171Z,26.5
2023-01-23T15:59:48.086Z,26.4
2023-01-23T16:04:49.719Z,26.4
2023-01-23T16:09:51.695Z,26.4
2023-01-23T16:14:53.435Z,26.4
2023-01-23T16:19:55.101Z,26.4
2023-01-23T16:24:57.095Z,26.4
2023-01-23T16:29:58.813Z,26.4
2023-01-23T16:35:00.679Z,26.4
2023-01-23T16:40:02.663Z,26.4
2023-01-23T16:45:04.306Z,26.4
2023-01-23T16:50:06.198Z,26.4
2023-01-23T16:55:08.152Z,26.4
2023-01-23T17:00:10.332Z,26.4
2023-01-23T17:05:12.227Z,29.6
2023-01-23T17:10:14.241Z,32.9
2023-01-23T17:15:16.235Z,35.4
2023-01-23T17:20:16.467Z,38.2
2023-01-23T17:25:16.839Z,40.6
2023-01-23T17:30:17.523Z,41.2
2023-01-23T17:35:18.078Z,43.1
2023-01-23T17:40:18.557Z,43.7
2023-01-23T17:45:19.318Z,43.7
2023-01-23T17:50:20.342Z,43.4
2023-01-23T17:55:20.997Z,44.2
2023-01-23T18:00:21.704Z,44.7
2023-01-23T18:05:22.791Z,44.8
2023-01-23T18:10:23.780Z,44.7
2023-01-23T18:15:24.321Z,44.7
2023-01-23T18:20:24.868Z,44.7
2023-01-23T18:25:25.383Z,44.7
2023-01-23T18:30:26.235Z,44.6
2023-01-23T18:35:26.954Z,44.1
2023-01-23T18:40:27.762Z,43.9
2023-01-23T18:45:28.727Z,43.8
2023-01-23T18:50:29.689Z,43.7
2023-01-23T18:55:30.416Z,43.7
2023-01-23T19:00:31.257Z,43.7
2023-01-23T19:05:32.008Z,43.6
2023-01-23T19:10:43.399Z,43.6
2023-01-23T19:15:48.154Z,43.5
2023-01-23T19:20:48.914Z,43.4
2023-01-23T19:25:49.665Z,43.4
2023-01-23T19:30:50.484Z,43.4
2023-01-23T19:35:51.505Z,43.3
2023-01-23T19:40:52.248Z,43.3
2023-01-23T19:45:52.696Z,43.2
2023-01-23T19:50:53.556Z,43.1
2023-01-23T19:55:54.233Z,43.1
2023-01-23T20:00:54.955Z,43.1
2023-01-23T20:05:55.408Z,43
2023-01-23T20:10:56.239Z,42.9
2023-01-23T20:15:56.935Z,42.9
2023-01-23T20:20:58.514Z,42.8
2023-01-23T20:25:59.284Z,42.7
2023-01-23T20:31:03.117Z,42.7
2023-01-23T20:36:03.612Z,42.6
2023-01-23T20:41:04.195Z,42.6
2023-01-23T20:46:04.682Z,42.5
2023-01-23T20:51:05.769Z,42.5
2023-01-23T20:56:06.981Z,42.4
2023-01-23T21:01:07.648Z,42.3
2023-01-23T21:06:09.099Z,42.2
2023-01-23T21:11:09.917Z,42.2
2023-01-23T21:16:10.462Z,41.7
2023-01-23T21:21:11.033Z,41.4
2023-01-23T21:26:11.685Z,41.2
2023-01-23T21:31:12.555Z,41.2
2023-01-23T21:36:13.393Z,41.1
2023-01-23T21:41:13.772Z,41.1
2023-01-23T21:46:14.277Z,40.9
2023-01-23T21:51:14.965Z,40.9
2023-01-23T21:56:15.375Z,40.8
2023-01-23T22:01:16.241Z,40.8
2023-01-23T22:06:16.658Z,40.7
2023-01-23T22:11:17.330Z,40.6
2023-01-23T22:16:18.054Z,40.6
2023-01-23T22:21:18.879Z,40.5
2023-01-23T22:26:19.513Z,40.4
2023-01-23T22:31:20.198Z,40.1
2023-01-23T22:36:20.642Z,40
2023-01-23T22:41:21.143Z,39.9
2023-01-23T22:46:21.528Z,39.9
2023-01-23T22:51:23.643Z,39.8
2023-01-23T22:56:24.763Z,39.7
2023-01-23T23:01:25.151Z,39.7
2023-01-23T23:06:25.529Z,39.6
2023-01-23T23:11:25.895Z,39.6
2023-01-23T23:16:26.610Z,39.5
2023-01-23T23:21:26.984Z,39.4
2023-01-23T23:26:27.604Z,39.4
2023-01-23T23:31:28.163Z,39.4
2023-01-23T23:36:28.677Z,39.3
2023-01-23T23:41:29.262Z,39.2
2023-01-23T23:46:29.612Z,39.2
2023-01-23T23:51:29.977Z,39.1
2023-01-23T23:56:30.443Z,39.1
